createdAt,value
2022-09-05T00:04:29.439Z,0
2022-09-05T00:10:50.444Z,0
2022-09-05T00:17:12.359Z,0
2022-09-05T00:24:23.576Z,0
2022-09-05T00:31:05.327Z,0
2022-09-05T00:36:15.322Z,0
2022-09-05T00:42:38.360Z,0
2022-09-05T00:48:58.326Z,0
2022-09-05T00:55:21.338Z,0
2022-09-05T01:01:41.475Z,0
2022-09-05T01:08:04.334Z,0
2022-09-05T01:14:24.363Z,0
2022-09-05T01:20:47.381Z,0
2022-09-05T01:27:07.434Z,0
2022-09-05T01:33:30.347Z,0
2022-09-05T01:40:12.658Z,0
2022-09-05T01:46:13.447Z,0
2022-09-05T01:52:33.380Z,0
2022-09-05T01:58:56.413Z,0
2022-09-05T02:05:16.331Z,0
2022-09-05T02:11:39.342Z,0
2022-09-05T02:17:59.324Z,0
2022-09-05T02:24:22.362Z,0
2022-09-05T02:30:47.319Z,0
2022-09-05T02:37:05.374Z,0
2022-09-05T02:45:04.667Z,0
2022-09-05T02:52:05.913Z,0
2022-09-05T02:57:32.547Z,0
2022-09-05T03:02:31.418Z,0
2022-09-05T03:08:51.327Z,0
2022-09-05T03:15:18.933Z,0
2022-09-05T03:21:34.380Z,0
2022-09-05T03:27:57.342Z,0
2022-09-05T03:34:17.366Z,0
2022-09-05T03:40:40.343Z,0
2022-09-05T04:06:11.675Z,0
2022-09-05T04:09:51.336Z,0
2022-09-05T04:16:11.358Z,0
2022-09-05T04:22:31.338Z,1
2022-09-05T04:28:54.328Z,2
2022-09-05T04:35:14.364Z,6
2022-09-05T04:41:39.665Z,16
2022-09-05T04:47:57.342Z,37
2022-09-05T04:54:20.347Z,72
2022-09-05T05:02:44.644Z,127
2022-09-05T05:07:06.141Z,206
2022-09-05T05:16:07.690Z,289
2022-09-05T05:19:48.880Z,384
2022-09-05T05:26:06.327Z,439
2022-09-05T05:32:31.673Z,478
2022-09-05T05:38:49.371Z,519
2022-09-05T05:45:12.323Z,548
2022-09-05T05:51:34.457Z,579
2022-09-05T05:57:55.361Z,614
2022-09-05T06:04:15.376Z,662
2022-09-05T06:14:27.547Z,704
2022-09-05T06:16:58.351Z,742
2022-09-05T06:23:39.715Z,797
2022-09-05T06:29:45.175Z,825
2022-09-05T06:36:04.764Z,864
2022-09-05T06:42:28.731Z,875
2022-09-05T06:49:01.386Z,897
2022-09-05T06:55:07.377Z,923
2022-09-05T07:01:38.449Z,950
2022-09-05T07:07:50.330Z,979
2022-09-05T07:14:13.374Z,1010
2022-09-05T07:20:33.309Z,1043
2022-09-05T07:26:56.623Z,1071
2022-09-05T07:33:16.316Z,1100
2022-09-05T07:39:39.396Z,1129
2022-09-05T07:45:59.426Z,1153
2022-09-05T07:55:13.825Z,1224
2022-09-05T07:58:42.346Z,1290
2022-09-05T08:05:05.368Z,1352
2022-09-05T08:11:26.365Z,1427
2022-09-05T08:17:48.348Z,1522
2022-09-05T08:24:13.495Z,1584
2022-09-05T08:30:31.358Z,1675
2022-09-05T08:36:51.359Z,1759
2022-09-05T08:43:30.916Z,1834
2022-09-05T08:49:37.125Z,1943
2022-09-05T08:55:57.323Z,2084
2022-09-05T09:02:45.958Z,2218
2022-09-05T09:08:40.323Z,2365
2022-09-05T09:15:00.360Z,2540
2022-09-05T09:39:11.653Z,2801
2022-09-05T09:45:28.143Z,2978
2022-09-05T09:51:44.366Z,3005
2022-09-05T09:58:04.317Z,3327
2022-09-05T10:06:03.219Z,3769
2022-09-05T10:11:16.783Z,4261
2022-09-05T10:17:10.311Z,2214
2022-09-05T10:23:30.357Z,3847
2022-09-05T10:29:53.316Z,2465
2022-09-05T10:36:17.236Z,2391
2022-09-05T10:42:38.499Z,4098
2022-09-05T10:48:56.316Z,4135
2022-09-05T10:55:19.358Z,4443
2022-09-05T11:02:25.048Z,4492
2022-09-05T11:08:02.345Z,4222
2022-09-05T11:14:26.883Z,4395
2022-09-05T11:20:45.324Z,4433
2022-09-05T11:27:24.043Z,4522
2022-09-05T11:35:50.026Z,4690
2022-09-05T11:40:27.061Z,1525
2022-09-05T11:46:11.343Z,5229
2022-09-05T11:52:31.313Z,5438
2022-09-05T11:58:54.473Z,5800
2022-09-05T12:05:48.259Z,5701
2022-09-05T12:11:37.367Z,6188
2022-09-05T12:17:57.316Z,6169
2022-09-05T12:25:15.525Z,6373
2022-09-05T12:30:46.378Z,6634
2022-09-05T12:37:10.571Z,6411
2022-09-05T12:43:53.132Z,6450
2022-09-05T12:49:46.655Z,6534
2022-09-05T12:56:13.493Z,6472
2022-09-05T13:03:00.378Z,6591
2022-09-05T13:08:58.967Z,6614
2022-09-05T13:15:22.598Z,6428
2022-09-05T13:21:32.312Z,6515
2022-09-05T13:27:55.390Z,6478
2022-09-05T13:37:57.094Z,6341
2022-09-05T13:40:38.422Z,6322
2022-09-05T13:46:59.190Z,6036
2022-09-05T13:53:21.314Z,6198
2022-09-05T13:59:41.360Z,5984
2022-09-05T14:06:08.632Z,4905
2022-09-05T14:12:24.334Z,4627
2022-09-05T14:18:50.731Z,3675
2022-09-05T14:25:07.317Z,4644
2022-09-05T14:32:22.283Z,4461
2022-09-05T14:38:04.087Z,4209
2022-09-05T14:44:13.327Z,3938
2022-09-05T14:50:34.979Z,3744
2022-09-05T14:57:24.156Z,2594
2022-09-05T15:03:16.922Z,2800
2022-09-05T15:11:26.026Z,3342
2022-09-05T15:32:49.794Z,3875
2022-09-05T15:39:11.710Z,3330
2022-09-05T15:45:29.320Z,2600
2022-09-05T15:51:49.317Z,2301
2022-09-05T15:58:12.308Z,2226
2022-09-05T16:05:56.123Z,2270
2022-09-05T16:11:15.322Z,2133
2022-09-05T16:18:51.469Z,1737
2022-09-05T16:23:41.282Z,1684
2022-09-05T16:29:58.313Z,1516
2022-09-05T16:36:21.358Z,1795
2022-09-05T16:42:47.299Z,1335
2022-09-05T16:49:04.494Z,898
2022-09-05T16:55:27.084Z,788
2022-09-05T17:01:47.430Z,810
2022-09-05T17:08:07.378Z,647
2022-09-05T17:14:30.352Z,451
2022-09-05T17:20:50.315Z,287
2022-09-05T17:29:37.168Z,251
2022-09-05T17:33:36.933Z,239
2022-09-05T17:39:56.398Z,259
2022-09-05T17:46:16.319Z,241
2022-09-05T17:52:39.309Z,198
2022-09-05T17:58:59.357Z,110
2022-09-05T18:05:22.302Z,70
2022-09-05T18:11:44.602Z,46
2022-09-05T18:18:05.389Z,23
2022-09-05T18:24:32.806Z,9
2022-09-05T18:30:48.356Z,3
2022-09-05T18:37:08.309Z,1
2022-09-05T18:43:31.346Z,0
2022-09-05T18:50:22.529Z,0
2022-09-05T18:56:19.688Z,0
2022-09-05T19:02:50.743Z,0
2022-09-05T19:08:57.313Z,0
2022-09-05T19:15:17.332Z,0
2022-09-05T19:21:40.320Z,0
2022-09-05T19:28:55.564Z,0
2022-09-05T19:37:01.402Z,0
2022-09-05T19:43:31.102Z,0
2022-09-05T19:47:46.039Z,0
2022-09-05T19:53:26.459Z,0
2022-09-05T19:59:49.309Z,0
2022-09-05T20:06:09.355Z,0
2022-09-05T20:12:32.318Z,0
2022-09-05T20:18:52.301Z,0
2022-09-05T20:25:19.983Z,0
2022-09-05T20:31:35.351Z,0
2022-09-05T20:41:30.610Z,0
2022-09-05T20:44:19.312Z,0
2022-09-05T20:54:11.334Z,0
2022-09-05T20:57:01.370Z,0
2022-09-05T21:03:24.604Z,0
2022-09-05T21:09:44.444Z,0
2022-09-05T21:33:08.283Z,0
2022-09-05T21:39:31.343Z,0
2022-09-05T21:47:45.491Z,0
2022-09-05T21:52:14.350Z,0
2022-09-05T21:59:23.419Z,0
2022-09-05T22:21:33.624Z,0
2022-09-05T22:27:51.320Z,0
2022-09-05T22:34:14.360Z,0
2022-09-05T22:40:34.303Z,0
2022-09-05T22:46:57.354Z,0
2022-09-05T22:53:17.299Z,0
2022-09-05T22:59:40.319Z,0
2022-09-05T23:06:00.315Z,0
2022-09-05T23:12:23.304Z,0
2022-09-05T23:18:43.345Z,0
2022-09-05T23:25:06.300Z,0
2022-09-05T23:31:26.381Z,0
2022-09-05T23:37:49.328Z,0
2022-09-05T23:44:09.304Z,0
2022-09-05T23:50:32.378Z,0
2022-09-05T23:56:52.307Z,0
